sensor_id;sensor_type;location;lat;lon;timestamp;pressure;altitude;pressure_sealevel;temperature;humidity
72548;BME280;60570;50.848;6.776;2022-10-14T00:00:22;100522.56;;;15.44;67.27
72548;BME280;60570;50.848;6.776;2022-10-14T00:01:23;100523.38;;;15.44;67.08
72548;BME280;60570;50.848;6.776;2022-10-14T00:02:24;100522.56;;;15.44;67.12
72548;BME280;60570;50.848;6.776;2022-10-14T00:03:24;100517.78;;;15.44;67.21
72548;BME280;60570;50.848;6.776;2022-10-14T00:04:25;100515.44;;;15.46;67.21
72548;BME280;60570;50.848;6.776;2022-10-14T00:05:32;100525.75;;;15.42;67.11
72548;BME280;60570;50.848;6.776;2022-10-14T00:06:33;100513.78;;;15.45;67.25
72548;BME280;60570;50.848;6.776;2022-10-14T00:07:35;100520.59;;;15.44;67.05
72548;BME280;60570;50.848;6.776;2022-10-14T00:08:35;100521.03;;;15.46;66.88
72548;BME280;60570;50.848;6.776;2022-10-14T00:09:37;100514.63;;;15.46;67.07
72548;BME280;60570;50.848;6.776;2022-10-14T00:10:39;100528.25;;;15.47;66.85
72548;BME280;60570;50.848;6.776;2022-10-14T00:11:39;100520.66;;;15.48;66.93
72548;BME280;60570;50.848;6.776;2022-10-14T00:12:40;100522.25;;;15.49;66.89
72548;BME280;60570;50.848;6.776;2022-10-14T00:13:48;100519.03;;;15.47;67.02
72548;BME280;60570;50.848;6.776;2022-10-14T00:14:52;100519.84;;;15.47;66.79
72548;BME280;60570;50.848;6.776;2022-10-14T00:15:53;100520.66;;;15.48;66.91
72548;BME280;60570;50.848;6.776;2022-10-14T00:16:53;100519.47;;;15.49;66.97
72548;BME280;60570;50.848;6.776;2022-10-14T00:17:54;100513.06;;;15.48;66.79
72548;BME280;60570;50.848;6.776;2022-10-14T00:18:56;100517.03;;;15.47;67.03
72548;BME280;60570;50.848;6.776;2022-10-14T00:19:58;100508.63;;;15.47;66.78
72548;BME280;60570;50.848;6.776;2022-10-14T00:21:00;100507.81;;;15.47;66.99
72548;BME280;60570;50.848;6.776;2022-10-14T00:22:01;100511.44;;;15.47;66.96
72548;BME280;60570;50.848;6.776;2022-10-14T00:23:02;100510.63;;;15.47;67.02
72548;BME280;60570;50.848;6.776;2022-10-14T00:24:02;100507.81;;;15.47;66.86
72548;BME280;60570;50.848;6.776;2022-10-14T00:25:03;100509.00;;;15.46;66.80
72548;BME280;60570;50.848;6.776;2022-10-14T00:26:04;100509.00;;;15.46;66.97
72548;BME280;60570;50.848;6.776;2022-10-14T00:27:04;100511.00;;;15.45;67.03
72548;BME280;60570;50.848;6.776;2022-10-14T00:28:05;100515.81;;;15.45;67.25
72548;BME280;60570;50.848;6.776;2022-10-14T00:29:10;100507.75;;;15.43;67.34
72548;BME280;60570;50.848;6.776;2022-10-14T00:30:11;100511.00;;;15.45;67.27
72548;BME280;60570;50.848;6.776;2022-10-14T00:31:12;100508.19;;;15.45;66.91
72548;BME280;60570;50.848;6.776;2022-10-14T00:32:13;100513.34;;;15.43;66.79
72548;BME280;60570;50.848;6.776;2022-10-14T00:33:14;100522.56;;;15.44;67.00
72548;BME280;60570;50.848;6.776;2022-10-14T00:34:14;100516.16;;;15.43;67.14
72548;BME280;60570;50.848;6.776;2022-10-14T00:35:15;100512.56;;;15.43;67.02
72548;BME280;60570;50.848;6.776;2022-10-14T00:36:18;100515.38;;;15.43;66.89
72548;BME280;60570;50.848;6.776;2022-10-14T00:37:19;100524.56;;;15.43;66.88
72548;BME280;60570;50.848;6.776;2022-10-14T00:38:19;100513.78;;;15.45;67.00
72548;BME280;60570;50.848;6.776;2022-10-14T00:39:20;100519.41;;;15.45;66.90
72548;BME280;60570;50.848;6.776;2022-10-14T00:40:20;100512.56;;;15.43;67.04
72548;BME280;60570;50.848;6.776;2022-10-14T00:41:27;100508.94;;;15.42;67.44
72548;BME280;60570;50.848;6.776;2022-10-14T00:42:31;100511.38;;;15.44;67.06
72548;BME280;60570;50.848;6.776;2022-10-14T00:45:06;100515.38;;;15.43;67.27
72548;BME280;60570;50.848;6.776;2022-10-14T00:46:10;100509.28;;;15.41;67.32
72548;BME280;60570;50.848;6.776;2022-10-14T00:47:11;100511.75;;;15.42;67.15
72548;BME280;60570;50.848;6.776;2022-10-14T00:48:12;100512.19;;;15.44;66.78
72548;BME280;60570;50.848;6.776;2022-10-14T00:50:18;100499.72;;;15.42;66.87
72548;BME280;60570;50.848;6.776;2022-10-14T00:51:20;100507.75;;;15.43;66.98
72548;BME280;60570;50.848;6.776;2022-10-14T00:52:22;100511.75;;;15.42;67.07
72548;BME280;60570;50.848;6.776;2022-10-14T00:53:27;100509.75;;;15.43;67.19
72548;BME280;60570;50.848;6.776;2022-10-14T00:54:37;100515.38;;;15.43;67.06
72548;BME280;60570;50.848;6.776;2022-10-14T00:55:40;100509.75;;;15.43;67.13
72548;BME280;60570;50.848;6.776;2022-10-14T00:56:43;100510.56;;;15.43;67.11
72548;BME280;60570;50.848;6.776;2022-10-14T00:57:44;100503.34;;;15.42;67.08
72548;BME280;60570;50.848;6.776;2022-10-14T00:58:45;100504.47;;;15.41;67.02
72548;BME280;60570;50.848;6.776;2022-10-14T00:59:45;100508.94;;;15.42;67.27
72548;BME280;60570;50.848;6.776;2022-10-14T01:00:46;100507.75;;;15.43;67.04
72548;BME280;60570;50.848;6.776;2022-10-14T01:01:49;100515.00;;;15.44;67.09
72548;BME280;60570;50.848;6.776;2022-10-14T01:02:49;100510.94;;;15.42;67.07
72548;BME280;60570;50.848;6.776;2022-10-14T01:03:50;100504.47;;;15.41;67.08
72548;BME280;60570;50.848;6.776;2022-10-14T01:04:51;100510.06;;;15.41;67.00
72548;BME280;60570;50.848;6.776;2022-10-14T01:07:39;100503.25;;;15.39;67.63
72548;BME280;60570;50.848;6.776;2022-10-14T01:08:54;100507.66;;;15.40;67.13
72548;BME280;60570;50.848;6.776;2022-10-14T01:13:13;100505.59;;;15.37;67.40
72548;BME280;60570;50.848;6.776;2022-10-14T01:13:56;100502.81;;;15.37;67.54
72548;BME280;60570;50.848;6.776;2022-10-14T01:15:10;100499.19;;;15.36;67.49
72548;BME280;60570;50.848;6.776;2022-10-14T01:16:26;100500.78;;;15.37;67.43
72548;BME280;60570;50.848;6.776;2022-10-14T01:17:52;100493.22;;;15.38;67.35
72548;BME280;60570;50.848;6.776;2022-10-14T01:21:30;100493.22;;;15.38;67.37
72548;BME280;60570;50.848;6.776;2022-10-14T01:24:17;100485.63;;;15.38;67.12
72548;BME280;60570;50.848;6.776;2022-10-14T01:27:55;100486.44;;;15.39;67.41
72548;BME280;60570;50.848;6.776;2022-10-14T01:31:17;100474.00;;;15.36;67.25
72548;BME280;60570;50.848;6.776;2022-10-14T01:33:37;100467.19;;;15.37;67.25
72548;BME280;60570;50.848;6.776;2022-10-14T01:37:15;100471.25;;;15.40;67.00
72548;BME280;60570;50.848;6.776;2022-10-14T01:38:21;100464.50;;;15.41;67.20
72548;BME280;60570;50.848;6.776;2022-10-14T01:39:32;100461.97;;;15.36;67.17
72548;BME280;60570;50.848;6.776;2022-10-14T01:40:54;100458.00;;;15.37;67.17
72548;BME280;60570;50.848;6.776;2022-10-14T01:42:14;100454.41;;;15.36;67.15
72548;BME280;60570;50.848;6.776;2022-10-14T01:43:17;100449.63;;;15.37;67.15
72548;BME280;60570;50.848;6.776;2022-10-14T01:44:21;100451.22;;;15.38;67.32
72548;BME280;60570;50.848;6.776;2022-10-14T01:45:24;100451.22;;;15.38;67.15
72548;BME280;60570;50.848;6.776;2022-10-14T01:46:28;100443.19;;;15.36;67.42
72548;BME280;60570;50.848;6.776;2022-10-14T01:47:31;100443.56;;;15.35;67.21
72548;BME280;60570;50.848;6.776;2022-10-14T01:48:34;100439.13;;;15.34;67.49
72548;BME280;60570;50.848;6.776;2022-10-14T01:49:43;100445.13;;;15.32;67.38
72548;BME280;60570;50.848;6.776;2022-10-14T01:50:47;100444.72;;;15.34;67.40
72548;BME280;60570;50.848;6.776;2022-10-14T01:51:56;100435.06;;;15.31;67.56
72548;BME280;60570;50.848;6.776;2022-10-14T01:53:06;100433.91;;;15.32;67.33
72548;BME280;60570;50.848;6.776;2022-10-14T01:54:14;100440.34;;;15.33;67.31
72548;BME280;60570;50.848;6.776;2022-10-14T01:55:18;100438.69;;;15.32;67.70
72548;BME280;60570;50.848;6.776;2022-10-14T01:56:21;100434.72;;;15.33;67.41
72548;BME280;60570;50.848;6.776;2022-10-14T01:57:28;100424.31;;;15.33;67.40
72548;BME280;60570;50.848;6.776;2022-10-14T01:58:30;100433.16;;;15.35;67.33
72548;BME280;60570;50.848;6.776;2022-10-14T01:59:33;100429.91;;;15.33;67.25
72548;BME280;60570;50.848;6.776;2022-10-14T02:00:35;100425.97;;;15.34;67.68
72548;BME280;60570;50.848;6.776;2022-10-14T02:01:37;100427.94;;;15.34;67.48
72548;BME280;60570;50.848;6.776;2022-10-14T02:02:37;100426.78;;;15.35;67.38
72548;BME280;60570;50.848;6.776;2022-10-14T02:03:43;100429.56;;;15.35;67.40
72548;BME280;60570;50.848;6.776;2022-10-14T02:04:44;100427.94;;;15.34;67.29
72548;BME280;60570;50.848;6.776;2022-10-14T02:05:56;100428.75;;;15.34;67.37
72548;BME280;60570;50.848;6.776;2022-10-14T02:07:14;100421.91;;;15.32;67.59
72548;BME280;60570;50.848;6.776;2022-10-14T02:08:33;100424.69;;;15.32;67.45
72548;BME280;60570;50.848;6.776;2022-10-14T02:09:46;100421.91;;;15.32;67.49
72548;BME280;60570;50.848;6.776;2022-10-14T02:13:33;100420.28;;;15.31;67.63
72548;BME280;60570;50.848;6.776;2022-10-14T02:16:25;100415.88;;;15.29;67.62
72548;BME280;60570;50.848;6.776;2022-10-14T02:17:29;100413.88;;;15.30;67.78
72548;BME280;60570;50.848;6.776;2022-10-14T02:18:53;100414.69;;;15.31;67.43
72548;BME280;60570;50.848;6.776;2022-10-14T02:20:08;100412.69;;;15.31;67.45
72548;BME280;60570;50.848;6.776;2022-10-14T02:23:33;100407.09;;;15.31;67.48
72548;BME280;60570;50.848;6.776;2022-10-14T02:24:39;100404.28;;;15.31;67.43
72548;BME280;60570;50.848;6.776;2022-10-14T02:25:44;100411.53;;;15.32;67.51
72548;BME280;60570;50.848;6.776;2022-10-14T02:26:46;100411.53;;;15.32;67.62
72548;BME280;60570;50.848;6.776;2022-10-14T02:27:48;100412.34;;;15.33;67.34
72548;BME280;60570;50.848;6.776;2022-10-14T02:28:51;100402.69;;;15.30;67.60
72548;BME280;60570;50.848;6.776;2022-10-14T02:29:53;100404.66;;;15.29;67.55
72548;BME280;60570;50.848;6.776;2022-10-14T02:31:03;100405.03;;;15.28;67.69
72548;BME280;60570;50.848;6.776;2022-10-14T02:32:06;100411.47;;;15.28;67.63
72548;BME280;60570;50.848;6.776;2022-10-14T02:33:07;100399.81;;;15.26;67.43
72548;BME280;60570;50.848;6.776;2022-10-14T02:34:11;100411.47;;;15.28;67.54
72548;BME280;60570;50.848;6.776;2022-10-14T02:35:15;100412.28;;;15.29;67.76
72548;BME280;60570;50.848;6.776;2022-10-14T02:36:19;100404.28;;;15.31;67.36
72548;BME280;60570;50.848;6.776;2022-10-14T02:37:22;100410.25;;;15.29;67.32
72548;BME280;60570;50.848;6.776;2022-10-14T02:38:25;100415.06;;;15.29;67.50
72548;BME280;60570;50.848;6.776;2022-10-14T02:39:33;100405.47;;;15.30;67.43
72548;BME280;60570;50.848;6.776;2022-10-14T02:40:38;100410.72;;;15.32;67.59
72548;BME280;60570;50.848;6.776;2022-10-14T02:41:39;100409.53;;;15.33;67.48
72548;BME280;60570;50.848;6.776;2022-10-14T02:42:40;100413.06;;;15.29;67.71
72548;BME280;60570;50.848;6.776;2022-10-14T02:43:40;100408.28;;;15.30;67.62
72548;BME280;60570;50.848;6.776;2022-10-14T02:44:51;100406.31;;;15.31;67.56
72548;BME280;60570;50.848;6.776;2022-10-14T02:45:56;100407.09;;;15.31;67.43
72548;BME280;60570;50.848;6.776;2022-10-14T02:46:57;100405.47;;;15.30;67.56
72548;BME280;60570;50.848;6.776;2022-10-14T02:47:58;100399.50;;;15.32;67.41
72548;BME280;60570;50.848;6.776;2022-10-14T02:48:58;100405.47;;;15.30;67.25
72548;BME280;60570;50.848;6.776;2022-10-14T02:49:59;100404.66;;;15.29;67.27
72548;BME280;60570;50.848;6.776;2022-10-14T02:50:59;100403.50;;;15.31;67.48
72548;BME280;60570;50.848;6.776;2022-10-14T02:51:59;100393.03;;;15.27;67.68
72548;BME280;60570;50.848;6.776;2022-10-14T02:53:00;100397.84;;;15.27;67.63
72548;BME280;60570;50.848;6.776;2022-10-14T02:54:01;100395.03;;;15.27;67.52
72548;BME280;60570;50.848;6.776;2022-10-14T02:55:01;100391.88;;;15.28;67.47
72548;BME280;60570;50.848;6.776;2022-10-14T02:56:02;100395.03;;;15.27;67.56
72548;BME280;60570;50.848;6.776;2022-10-14T02:57:02;100391.03;;;15.28;67.69
72548;BME280;60570;50.848;6.776;2022-10-14T02:58:03;100386.28;;;15.28;67.63
72548;BME280;60570;50.848;6.776;2022-10-14T02:59:03;100385.44;;;15.28;67.66
72548;BME280;60570;50.848;6.776;2022-10-14T03:00:05;100381.84;;;15.27;67.72
72548;BME280;60570;50.848;6.776;2022-10-14T03:01:06;100383.03;;;15.26;67.70
72548;BME280;60570;50.848;6.776;2022-10-14T03:02:06;100390.22;;;15.27;67.34
72548;BME280;60570;50.848;6.776;2022-10-14T03:03:07;100390.22;;;15.27;67.80
72548;BME280;60570;50.848;6.776;2022-10-14T03:04:08;100390.59;;;15.26;67.78
72548;BME280;60570;50.848;6.776;2022-10-14T03:05:08;100385.81;;;15.26;67.56
72548;BME280;60570;50.848;6.776;2022-10-14T03:06:09;100385.81;;;15.26;67.66
72548;BME280;60570;50.848;6.776;2022-10-14T03:07:10;100381.06;;;15.27;67.47
72548;BME280;60570;50.848;6.776;2022-10-14T03:08:10;100385.88;;;15.30;67.65
72548;BME280;60570;50.848;6.776;2022-10-14T03:09:11;100385.81;;;15.26;67.67
72548;BME280;60570;50.848;6.776;2022-10-14T03:10:11;100380.22;;;15.26;67.74
72548;BME280;60570;50.848;6.776;2022-10-14T03:11:12;100385.81;;;15.26;67.67
72548;BME280;60570;50.848;6.776;2022-10-14T03:12:12;100382.22;;;15.26;67.33
72548;BME280;60570;50.848;6.776;2022-10-14T03:13:13;100390.22;;;15.27;67.80
72548;BME280;60570;50.848;6.776;2022-10-14T03:14:14;100380.22;;;15.26;67.63
72548;BME280;60570;50.848;6.776;2022-10-14T03:15:14;100391.03;;;15.28;67.58
72548;BME280;60570;50.848;6.776;2022-10-14T03:16:15;100385.81;;;15.26;67.48
72548;BME280;60570;50.848;6.776;2022-10-14T03:17:15;100383.03;;;15.26;67.44
72548;BME280;60570;50.848;6.776;2022-10-14T03:18:16;100381.84;;;15.27;67.61
72548;BME280;60570;50.848;6.776;2022-10-14T03:19:16;100381.84;;;15.27;67.41
72548;BME280;60570;50.848;6.776;2022-10-14T03:20:17;100387.81;;;15.26;67.61
72548;BME280;60570;50.848;6.776;2022-10-14T03:21:17;100382.59;;;15.24;67.65
72548;BME280;60570;50.848;6.776;2022-10-14T03:22:18;100383.41;;;15.25;67.62
72548;BME280;60570;50.848;6.776;2022-10-14T03:23:18;100372.56;;;15.23;67.57
72548;BME280;60570;50.848;6.776;2022-10-14T03:24:19;100373.81;;;15.26;67.66
72548;BME280;60570;50.848;6.776;2022-10-14T03:25:19;100374.63;;;15.26;67.71
72548;BME280;60570;50.848;6.776;2022-10-14T03:26:20;100373.00;;;15.25;67.47
72548;BME280;60570;50.848;6.776;2022-10-14T03:27:20;100383.84;;;15.27;67.69
72548;BME280;60570;50.848;6.776;2022-10-14T03:28:21;100375.44;;;15.27;67.41
72548;BME280;60570;50.848;6.776;2022-10-14T03:29:21;100375.00;;;15.25;67.55
72548;BME280;60570;50.848;6.776;2022-10-14T03:30:21;100376.16;;;15.24;67.78
72548;BME280;60570;50.848;6.776;2022-10-14T03:31:22;100375.00;;;15.25;67.54
72548;BME280;60570;50.848;6.776;2022-10-14T03:32:22;100379.41;;;15.26;67.71
72548;BME280;60570;50.848;6.776;2022-10-14T03:33:23;100375.44;;;15.27;67.49
72548;BME280;60570;50.848;6.776;2022-10-14T03:34:23;100370.56;;;15.24;67.55
72548;BME280;60570;50.848;6.776;2022-10-14T03:35:23;100367.41;;;15.25;67.77
72548;BME280;60570;50.848;6.776;2022-10-14T03:36:24;100372.66;;;15.27;67.65
72548;BME280;60570;50.848;6.776;2022-10-14T03:37:24;100371.84;;;15.26;67.41
72548;BME280;60570;50.848;6.776;2022-10-14T03:38:25;100373.81;;;15.26;67.61
72548;BME280;60570;50.848;6.776;2022-10-14T03:39:25;100373.00;;;15.25;67.92
72548;BME280;60570;50.848;6.776;2022-10-14T03:40:26;100366.25;;;15.26;67.59
72548;BME280;60570;50.848;6.776;2022-10-14T03:41:26;100373.00;;;15.25;67.28
72548;BME280;60570;50.848;6.776;2022-10-14T03:42:27;100366.63;;;15.25;67.49
72548;BME280;60570;50.848;6.776;2022-10-14T03:43:27;100364.59;;;15.25;67.62
72548;BME280;60570;50.848;6.776;2022-10-14T03:44:28;100362.19;;;15.24;67.63
72548;BME280;60570;50.848;6.776;2022-10-14T03:45:28;100361.00;;;15.25;67.72
72548;BME280;60570;50.848;6.776;2022-10-14T03:46:28;100362.56;;;15.22;67.78
72548;BME280;60570;50.848;6.776;2022-10-14T03:47:30;100357.41;;;15.24;67.75
72548;BME280;60570;50.848;6.776;2022-10-14T03:48:30;100363.72;;;15.21;67.67
72548;BME280;60570;50.848;6.776;2022-10-14T03:49:31;100361.38;;;15.23;67.73
72548;BME280;60570;50.848;6.776;2022-10-14T03:50:31;100359.75;;;15.22;67.46
72548;BME280;60570;50.848;6.776;2022-10-14T03:51:32;100353.72;;;15.20;67.69
72548;BME280;60570;50.848;6.776;2022-10-14T03:52:32;100350.09;;;15.20;67.82
72548;BME280;60570;50.848;6.776;2022-10-14T03:53:33;100352.97;;;15.23;67.63
72548;BME280;60570;50.848;6.776;2022-10-14T03:54:33;100350.16;;;15.23;67.81
72548;BME280;60570;50.848;6.776;2022-10-14T03:55:34;100355.31;;;15.21;67.67
72548;BME280;60570;50.848;6.776;2022-10-14T03:56:34;100350.91;;;15.20;67.79
72548;BME280;60570;50.848;6.776;2022-10-14T03:57:35;100345.38;;;15.24;67.73
72548;BME280;60570;50.848;6.776;2022-10-14T03:58:36;100354.59;;;15.24;67.86
72548;BME280;60570;50.848;6.776;2022-10-14T03:59:36;100350.97;;;15.24;67.81
72548;BME280;60570;50.848;6.776;2022-10-14T04:00:36;100350.16;;;15.23;67.58
72548;BME280;60570;50.848;6.776;2022-10-14T04:01:37;100342.97;;;15.22;67.68
72548;BME280;60570;50.848;6.776;2022-10-14T04:02:37;100349.72;;;15.21;67.73
72548;BME280;60570;50.848;6.776;2022-10-14T04:03:38;100352.91;;;15.20;67.86
72548;BME280;60570;50.848;6.776;2022-10-14T04:04:40;100352.53;;;15.21;67.86
72548;BME280;60570;50.848;6.776;2022-10-14T04:05:40;100354.97;;;15.23;67.65
72548;BME280;60570;50.848;6.776;2022-10-14T04:06:41;100358.56;;;15.23;67.75
72548;BME280;60570;50.848;6.776;2022-10-14T04:07:41;100349.72;;;15.21;67.64
72548;BME280;60570;50.848;6.776;2022-10-14T04:08:42;100350.09;;;15.20;67.62
72548;BME280;60570;50.848;6.776;2022-10-14T04:09:42;100355.31;;;15.21;67.86
72548;BME280;60570;50.848;6.776;2022-10-14T04:10:43;100350.91;;;15.20;67.58
72548;BME280;60570;50.848;6.776;2022-10-14T04:11:43;100349.38;;;15.23;67.73
72548;BME280;60570;50.848;6.776;2022-10-14T04:12:44;100349.38;;;15.23;67.57
72548;BME280;60570;50.848;6.776;2022-10-14T04:13:44;100356.53;;;15.20;67.97
72548;BME280;60570;50.848;6.776;2022-10-14T04:14:45;100349.28;;;15.19;67.84
72548;BME280;60570;50.848;6.776;2022-10-14T04:15:45;100349.66;;;15.18;67.85
72548;BME280;60570;50.848;6.776;2022-10-14T04:16:46;100353.66;;;15.17;67.89
72548;BME280;60570;50.848;6.776;2022-10-14T04:17:46;100352.91;;;15.20;67.72
72548;BME280;60570;50.848;6.776;2022-10-14T04:18:47;100350.09;;;15.20;67.71
72548;BME280;60570;50.848;6.776;2022-10-14T04:19:47;100346.94;;;15.21;67.51
72548;BME280;60570;50.848;6.776;2022-10-14T04:20:47;100349.72;;;15.21;67.40
72548;BME280;60570;50.848;6.776;2022-10-14T04:21:48;100356.53;;;15.20;67.54
72548;BME280;60570;50.848;6.776;2022-10-14T04:22:49;100358.88;;;15.18;67.91
72548;BME280;60570;50.848;6.776;2022-10-14T04:23:49;100353.28;;;15.18;67.66
72548;BME280;60570;50.848;6.776;2022-10-14T04:24:50;100352.09;;;15.19;67.66
72548;BME280;60570;50.848;6.776;2022-10-14T04:25:50;100350.47;;;15.18;67.75
72548;BME280;60570;50.848;6.776;2022-10-14T04:26:51;100352.84;;;15.16;67.67
72548;BME280;60570;50.848;6.776;2022-10-14T04:27:52;100349.28;;;15.19;67.49
72548;BME280;60570;50.848;6.776;2022-10-14T04:28:53;100351.31;;;15.19;67.91
72548;BME280;60570;50.848;6.776;2022-10-14T04:29:53;100358.50;;;15.20;67.80
72548;BME280;60570;50.848;6.776;2022-10-14T04:30:54;100350.91;;;15.20;67.50
72548;BME280;60570;50.848;6.776;2022-10-14T04:31:54;100351.31;;;15.19;67.72
72548;BME280;60570;50.848;6.776;2022-10-14T04:32:55;100349.66;;;15.18;67.60
72548;BME280;60570;50.848;6.776;2022-10-14T04:33:55;100355.31;;;15.21;67.68
72548;BME280;60570;50.848;6.776;2022-10-14T04:34:56;100348.50;;;15.19;67.64
72548;BME280;60570;50.848;6.776;2022-10-14T04:36:02;100350.91;;;15.20;67.58
72548;BME280;60570;50.848;6.776;2022-10-14T04:37:02;100348.94;;;15.21;67.46
72548;BME280;60570;50.848;6.776;2022-10-14T04:38:03;100346.50;;;15.19;67.87
72548;BME280;60570;50.848;6.776;2022-10-14T04:39:03;100348.13;;;15.20;67.75
72548;BME280;60570;50.848;6.776;2022-10-14T04:40:05;100345.69;;;15.19;67.70
72548;BME280;60570;50.848;6.776;2022-10-14T04:41:05;100340.53;;;15.21;67.69
72548;BME280;60570;50.848;6.776;2022-10-14T04:42:06;100346.50;;;15.19;67.49
72548;BME280;60570;50.848;6.776;2022-10-14T04:43:06;100342.91;;;15.19;67.70
72548;BME280;60570;50.848;6.776;2022-10-14T04:44:07;100342.47;;;15.17;67.62
72548;BME280;60570;50.848;6.776;2022-10-14T04:45:09;100341.28;;;15.18;67.70
72548;BME280;60570;50.848;6.776;2022-10-14T04:46:09;100336.50;;;15.18;67.78
72548;BME280;60570;50.848;6.776;2022-10-14T04:47:10;100341.28;;;15.18;67.79
72548;BME280;60570;50.848;6.776;2022-10-14T04:48:10;100345.25;;;15.17;67.73
72548;BME280;60570;50.848;6.776;2022-10-14T04:49:11;100340.44;;;15.17;67.72
72548;BME280;60570;50.848;6.776;2022-10-14T04:50:12;100344.44;;;15.16;67.74
72548;BME280;60570;50.848;6.776;2022-10-14T04:51:12;100342.91;;;15.19;67.67
72548;BME280;60570;50.848;6.776;2022-10-14T04:52:13;100334.84;;;15.17;67.72
72548;BME280;60570;50.848;6.776;2022-10-14T04:53:13;100334.44;;;15.15;67.82
72548;BME280;60570;50.848;6.776;2022-10-14T04:54:13;100331.28;;;15.17;67.75
72548;BME280;60570;50.848;6.776;2022-10-14T04:55:14;100333.69;;;15.18;67.71
72548;BME280;60570;50.848;6.776;2022-10-14T04:56:14;100329.69;;;15.19;67.56
72548;BME280;60570;50.848;6.776;2022-10-14T04:57:15;100332.06;;;15.17;67.56
72548;BME280;60570;50.848;6.776;2022-10-14T04:58:15;100327.28;;;15.18;67.69
72548;BME280;60570;50.848;6.776;2022-10-14T04:59:16;100320.50;;;15.19;67.71
72548;BME280;60570;50.848;6.776;2022-10-14T05:00:17;100328.53;;;15.20;67.66
72548;BME280;60570;50.848;6.776;2022-10-14T05:01:17;100322.13;;;15.20;67.65
72548;BME280;60570;50.848;6.776;2022-10-14T05:02:18;100325.28;;;15.18;67.63
72548;BME280;60570;50.848;6.776;2022-10-14T05:03:18;100320.06;;;15.17;67.57
72548;BME280;60570;50.848;6.776;2022-10-14T05:04:18;100322.88;;;15.17;67.89
72548;BME280;60570;50.848;6.776;2022-10-14T05:05:19;100320.06;;;15.17;67.74
72548;BME280;60570;50.848;6.776;2022-10-14T05:06:20;100320.06;;;15.17;67.90
72548;BME280;60570;50.848;6.776;2022-10-14T05:07:20;100311.69;;;15.17;67.97
72548;BME280;60570;50.848;6.776;2022-10-14T05:08:21;100312.47;;;15.17;67.71
72548;BME280;60570;50.848;6.776;2022-10-14T05:09:22;100315.25;;;15.17;67.80
72548;BME280;60570;50.848;6.776;2022-10-14T05:10:23;100306.09;;;15.17;67.86
72548;BME280;60570;50.848;6.776;2022-10-14T05:11:23;100305.28;;;15.16;68.00
72548;BME280;60570;50.848;6.776;2022-10-14T05:12:24;100301.66;;;15.16;68.00
72548;BME280;60570;50.848;6.776;2022-10-14T05:13:25;100304.44;;;15.16;67.60
72548;BME280;60570;50.848;6.776;2022-10-14T05:14:25;100302.03;;;15.14;68.01
72548;BME280;60570;50.848;6.776;2022-10-14T05:15:32;100302.03;;;15.14;67.93
72548;BME280;60570;50.848;6.776;2022-10-14T05:16:33;100301.22;;;15.14;67.78
72548;BME280;60570;50.848;6.776;2022-10-14T05:17:33;100298.06;;;15.15;67.79
72548;BME280;60570;50.848;6.776;2022-10-14T05:18:35;100300.88;;;15.15;68.03
72548;BME280;60570;50.848;6.776;2022-10-14T05:19:36;100297.69;;;15.17;67.57
72548;BME280;60570;50.848;6.776;2022-10-14T05:20:37;100297.69;;;15.17;67.61
72548;BME280;60570;50.848;6.776;2022-10-14T05:21:37;100298.06;;;15.15;67.78
72548;BME280;60570;50.848;6.776;2022-10-14T05:22:38;100301.22;;;15.14;67.82
72548;BME280;60570;50.848;6.776;2022-10-14T05:23:38;100295.63;;;15.14;67.86
72548;BME280;60570;50.848;6.776;2022-10-14T05:24:39;100300.88;;;15.15;67.82
72548;BME280;60570;50.848;6.776;2022-10-14T05:25:42;100299.66;;;15.16;67.86
72548;BME280;60570;50.848;6.776;2022-10-14T05:26:43;100304.00;;;15.14;68.07
72548;BME280;60570;50.848;6.776;2022-10-14T05:27:43;100296.44;;;15.14;67.96
72548;BME280;60570;50.848;6.776;2022-10-14T05:28:44;100299.66;;;15.16;67.72
72548;BME280;60570;50.848;6.776;2022-10-14T05:29:44;100296.88;;;15.16;67.94
72548;BME280;60570;50.848;6.776;2022-10-14T05:30:45;100285.25;;;15.14;67.83
72548;BME280;60570;50.848;6.776;2022-10-14T05:31:45;100293.25;;;15.16;67.76
72548;BME280;60570;50.848;6.776;2022-10-14T05:32:46;100294.88;;;15.17;68.04
72548;BME280;60570;50.848;6.776;2022-10-14T05:33:46;100293.63;;;15.14;67.94
72548;BME280;60570;50.848;6.776;2022-10-14T05:34:46;100297.97;;;15.12;68.12
72548;BME280;60570;50.848;6.776;2022-10-14T05:35:47;100292.03;;;15.13;68.12
72548;BME280;60570;50.848;6.776;2022-10-14T05:36:47;100292.03;;;15.13;68.21
72548;BME280;60570;50.848;6.776;2022-10-14T05:37:53;100292.03;;;15.13;67.74
72548;BME280;60570;50.848;6.776;2022-10-14T05:38:54;100298.78;;;15.12;67.89
72548;BME280;60570;50.848;6.776;2022-10-14T05:39:57;100289.22;;;15.13;67.99
72548;BME280;60570;50.848;6.776;2022-10-14T05:40:58;100292.38;;;15.12;68.00
72548;BME280;60570;50.848;6.776;2022-10-14T05:41:58;100287.97;;;15.11;68.02
72548;BME280;60570;50.848;6.776;2022-10-14T05:42:59;100298.78;;;15.12;68.10
72548;BME280;60570;50.848;6.776;2022-10-14T05:43:59;100295.19;;;15.12;68.08
72548;BME280;60570;50.848;6.776;2022-10-14T05:45:00;100298.41;;;15.14;67.97
72548;BME280;60570;50.848;6.776;2022-10-14T05:46:00;100296.81;;;15.13;67.85
72548;BME280;60570;50.848;6.776;2022-10-14T05:47:04;100303.56;;;15.12;68.12
72548;BME280;60570;50.848;6.776;2022-10-14T05:48:04;100300.78;;;15.12;68.15
72548;BME280;60570;50.848;6.776;2022-10-14T05:49:05;100296.00;;;15.12;67.88
72548;BME280;60570;50.848;6.776;2022-10-14T05:50:05;100298.78;;;15.12;67.90
72548;BME280;60570;50.848;6.776;2022-10-14T05:51:06;100297.63;;;15.13;68.09
72548;BME280;60570;50.848;6.776;2022-10-14T05:52:07;100296.00;;;15.12;68.20